createdAt,value
2023-08-02T00:01:33.975Z,99336.19
2023-08-02T00:06:36.994Z,99338.65
2023-08-02T00:11:39.924Z,99334.04
2023-08-02T00:16:43.074Z,99331.66
2023-08-02T00:21:46.356Z,99325.54
2023-08-02T00:26:50.594Z,99327.83
2023-08-02T00:31:53.507Z,99332.74
2023-08-02T00:36:56.379Z,99323.13
2023-08-02T00:41:59.227Z,99344.48
2023-08-02T00:47:02.266Z,99353.54
2023-08-02T00:52:06.551Z,99345.75
2023-08-02T00:57:10.636Z,99345.91
2023-08-02T01:02:13.516Z,99339.48
2023-08-02T01:07:52.104Z,99333.27
2023-08-02T01:12:55.578Z,99357.08
2023-08-02T01:17:58.598Z,99349.59
2023-08-02T01:23:01.555Z,99352.52
2023-08-02T01:28:07.287Z,99359.90
2023-08-02T01:33:10.269Z,99365.30
2023-08-02T01:38:13.284Z,99355.55
2023-08-02T01:43:16.173Z,99351.73
2023-08-02T01:48:19.059Z,99350.85
2023-08-02T01:53:21.950Z,99352.11
2023-08-02T01:58:24.890Z,99358.30
2023-08-02T02:03:28.072Z,99367.81
2023-08-02T02:08:31.095Z,99358.03
2023-08-02T02:13:33.963Z,99357.27
2023-08-02T02:18:36.754Z,99364.14
2023-08-02T02:23:39.700Z,99366.13
2023-08-02T02:28:42.549Z,99365.21
2023-08-02T02:33:45.427Z,99362.02
2023-08-02T02:38:49.927Z,99358.27
2023-08-02T02:43:52.787Z,99358.49
2023-08-02T02:48:56.107Z,99364.73
2023-08-02T02:53:58.965Z,99367.23
2023-08-02T02:59:01.849Z,99374.02
2023-08-02T03:04:04.907Z,99377.40
2023-08-02T03:09:08.462Z,99378.77
2023-08-02T03:14:11.557Z,99377.94
2023-08-02T03:19:14.488Z,99378.13
2023-08-02T03:24:17.479Z,99380.90
2023-08-02T03:29:20.356Z,99389.41
2023-08-02T03:34:23.230Z,99389.50
2023-08-02T03:39:29.047Z,99384.42
2023-08-02T03:44:32.043Z,99389.52
2023-08-02T03:49:36.990Z,99389.39
2023-08-02T03:54:39.899Z,99388.25
2023-08-02T03:59:42.767Z,99388.94
2023-08-02T04:04:45.638Z,99392.05
2023-08-02T04:09:48.857Z,99394.23
2023-08-02T04:14:51.724Z,99404.39
2023-08-02T04:19:54.594Z,99405.68
2023-08-02T04:24:57.480Z,99404.94
2023-08-02T04:30:00.688Z,99413.08
2023-08-02T04:35:03.990Z,99421.45
2023-08-02T04:40:08.313Z,99422.98
2023-08-02T04:45:11.668Z,99427.45
2023-08-02T04:50:14.585Z,99431.67
2023-08-02T04:55:17.528Z,99435.61
2023-08-02T05:00:20.510Z,99432.56
2023-08-02T05:05:25.434Z,99438.48
2023-08-02T05:10:28.738Z,99445.29
2023-08-02T05:15:39.235Z,99445.57
2023-08-02T05:20:42.588Z,99444.47
2023-08-02T05:25:45.557Z,99448.52
2023-08-02T05:30:48.952Z,99446.50
2023-08-02T05:35:52.014Z,99448.30
2023-08-02T05:40:54.892Z,99446.67
2023-08-02T05:45:58.318Z,99454.20
2023-08-02T05:51:01.330Z,99451.65
2023-08-02T05:56:04.565Z,99461.21
2023-08-02T06:01:07.912Z,99467.58
2023-08-02T06:06:11.118Z,99469.77
2023-08-02T06:11:14.167Z,99465.63
2023-08-02T06:16:17.413Z,99470.85
2023-08-02T06:21:20.378Z,99474.54
2023-08-02T06:26:23.295Z,99475.52
2023-08-02T06:31:26.397Z,99480.02
2023-08-02T06:36:29.490Z,99480.42
2023-08-02T06:41:32.553Z,99472.98
2023-08-02T06:46:35.716Z,99483.90
2023-08-02T06:51:41.354Z,99490.17
2023-08-02T06:56:44.840Z,99492.72
2023-08-02T07:01:47.953Z,99492.75
2023-08-02T07:06:50.951Z,99494.81
2023-08-02T07:11:53.957Z,99503.66
2023-08-02T07:16:56.984Z,99509.58
2023-08-02T07:21:59.888Z,99508.08
2023-08-02T07:27:02.810Z,99511.40
2023-08-02T07:32:06.636Z,99516.70
2023-08-02T07:37:09.490Z,99516.73
2023-08-02T07:42:12.518Z,99516.77
2023-08-02T07:47:15.400Z,99526.14
2023-08-02T07:52:18.265Z,99535.34
2023-08-02T07:57:22.997Z,99540.23
2023-08-02T08:02:26.573Z,99542.89
2023-08-02T08:07:29.604Z,99541.25
2023-08-02T08:12:32.550Z,99534.65
2023-08-02T08:17:35.520Z,99533.13
2023-08-02T08:22:38.455Z,99533.64
2023-08-02T08:27:41.738Z,99540.23
2023-08-02T08:32:45.287Z,99547.93
2023-08-02T08:37:50.556Z,99543.98
2023-08-02T08:42:55.645Z,99540.89
2023-08-02T08:47:58.719Z,99547.05
2023-08-02T08:53:03.034Z,99548.33
2023-08-02T08:58:10.970Z,99548.80
2023-08-02T09:03:14.542Z,99550.20
2023-08-02T09:08:18.204Z,99564.84
2023-08-02T09:13:28.564Z,99557.61
2023-08-02T09:18:42.492Z,99549.95
2023-08-02T09:23:49.680Z,99556.30
2023-08-02T09:29:07.533Z,99557.83
2023-08-02T09:34:11.660Z,99554.05
2023-08-02T09:39:16.131Z,99548.94
2023-08-02T09:44:22.921Z,99545.73
2023-08-02T09:49:26.332Z,99540.53
2023-08-02T09:54:31.037Z,99541.22
2023-08-02T09:59:33.923Z,99541.60
2023-08-02T10:04:37.007Z,99542.46
2023-08-02T10:09:39.955Z,99538.77
2023-08-02T10:14:42.974Z,99538.89
2023-08-02T10:19:46.376Z,99534.31
2023-08-02T10:24:49.255Z,99529.02
2023-08-02T10:29:53.762Z,99529.36
2023-08-02T10:34:57.977Z,99528.56
2023-08-02T10:40:01.218Z,99523.50
2023-08-02T10:45:04.206Z,99518.08
2023-08-02T10:50:07.400Z,99516.71
2023-08-02T10:55:19.940Z,99497.48
2023-08-02T11:00:32.406Z,99489.85
2023-08-02T11:05:45.532Z,99489.48
2023-08-02T11:10:53.902Z,99486.59
2023-08-02T11:16:04.622Z,99484.55
2023-08-02T11:21:11.885Z,99475.45
2023-08-02T11:26:16.166Z,99467.14
2023-08-02T11:31:29.051Z,99465.71
2023-08-02T11:36:35.237Z,99464.73
2023-08-02T11:41:38.198Z,99469.73
2023-08-02T11:46:41.688Z,99470.03
2023-08-02T11:51:44.899Z,99466.75
2023-08-02T11:56:47.897Z,99466.30
2023-08-02T12:01:50.800Z,99462.13
2023-08-02T12:06:54.473Z,99453.88
2023-08-02T12:11:57.456Z,99459.13
2023-08-02T12:17:00.467Z,99463.27
2023-08-02T12:22:03.693Z,99464.31
2023-08-02T12:27:17.382Z,99464.67
2023-08-02T12:32:27.594Z,99467.00
2023-08-02T12:37:30.615Z,99459.95
2023-08-02T12:42:34.533Z,99455.87
2023-08-02T12:47:41.799Z,99454.40
2023-08-02T12:52:44.997Z,99452.09
2023-08-02T12:57:47.986Z,99450.44
2023-08-02T13:02:50.983Z,99447.04
2023-08-02T13:07:54.016Z,99438.03
2023-08-02T13:12:57.509Z,99433.77
2023-08-02T13:18:02.426Z,99427.17
2023-08-02T13:23:09.778Z,99424.75
2023-08-02T13:28:13.940Z,99421.91
2023-08-02T13:33:19.138Z,99419.91
2023-08-02T13:38:22.640Z,99419.65
2023-08-02T13:43:27.170Z,99417.14
2023-08-02T13:48:30.668Z,99409.27
2023-08-02T13:53:34.620Z,99407.89
2023-08-02T13:58:40.412Z,99407.02
2023-08-02T14:03:43.351Z,99400.91
2023-08-02T14:08:46.468Z,99398.13
2023-08-02T14:13:49.286Z,99394.23
2023-08-02T14:18:52.154Z,99383.45
2023-08-02T14:23:55.108Z,99383.79
2023-08-02T14:28:58.016Z,99384.52
2023-08-02T14:34:00.893Z,99378.19
2023-08-02T14:39:04.765Z,99368.52
2023-08-02T14:44:07.698Z,99368.00
2023-08-02T14:49:10.538Z,99361.90
2023-08-02T14:54:14.541Z,99359.09
2023-08-02T14:59:17.848Z,99355.55
2023-08-02T15:04:21.330Z,99359.98
2023-08-02T15:09:24.379Z,99358.86
2023-08-02T15:14:27.773Z,99356.55
2023-08-02T15:19:31.992Z,99353.36
2023-08-02T15:24:35.260Z,99351.80
2023-08-02T15:29:40.694Z,99349.64
2023-08-02T15:34:44.468Z,99352.60
2023-08-02T15:39:49.076Z,99349.20
2023-08-02T15:45:01.694Z,99355.20
2023-08-02T15:50:07.036Z,99352.55
2023-08-02T15:55:10.053Z,99349.45
2023-08-02T16:00:13.857Z,99341.10
2023-08-02T16:05:17.310Z,99334.80
2023-08-02T16:10:20.255Z,99329.73
2023-08-02T16:15:23.168Z,99319.25
2023-08-02T16:20:26.306Z,99309.97
2023-08-02T16:25:29.615Z,99303.30
2023-08-02T16:30:32.486Z,99300.17
2023-08-02T16:35:35.577Z,99308.33
2023-08-02T16:40:38.505Z,99308.56
2023-08-02T16:45:41.405Z,99303.55
2023-08-02T16:50:44.872Z,99302.08
2023-08-02T16:55:47.820Z,99302.93
2023-08-02T17:00:50.680Z,99302.79
2023-08-02T17:05:53.853Z,99300.55
2023-08-02T17:10:56.691Z,99299.63
2023-08-02T17:16:03.595Z,99289.71
2023-08-02T17:21:06.552Z,99282.98
2023-08-02T17:26:09.481Z,99287.23
2023-08-02T17:31:14.812Z,99287.27
2023-08-02T17:36:19.028Z,99284.38
2023-08-02T17:41:26.317Z,99280.11
2023-08-02T17:46:29.283Z,99278.28
2023-08-02T17:51:33.514Z,99280.95
2023-08-02T17:56:36.448Z,99286.73
2023-08-02T18:01:39.480Z,99293.71
2023-08-02T18:06:42.440Z,99310.86
2023-08-02T18:11:45.926Z,99317.63
2023-08-02T18:16:48.970Z,99317.09
2023-08-02T18:21:55.584Z,99307.79
2023-08-02T18:26:58.535Z,99304.17
2023-08-02T18:32:01.470Z,99306.14
2023-08-02T18:37:04.688Z,99307.45
2023-08-02T18:42:08.043Z,99310.98
2023-08-02T18:47:11.000Z,99313.30
2023-08-02T18:52:13.855Z,99312.36
2023-08-02T18:57:16.723Z,99313.11
2023-08-02T19:02:19.658Z,99315.02
2023-08-02T19:07:25.686Z,99312.52
2023-08-02T19:12:28.606Z,99309.23
2023-08-02T19:17:37.511Z,99307.92
2023-08-02T19:22:45.464Z,99301.40
2023-08-02T19:27:55.080Z,99310.04
2023-08-02T19:32:59.694Z,99311.60
2023-08-02T19:38:05.066Z,99314.59
2023-08-02T19:43:10.731Z,99312.48
2023-08-02T19:48:14.505Z,99310.59
2023-08-02T19:53:18.407Z,99307.58
2023-08-02T19:58:22.316Z,99298.68
2023-08-02T20:03:27.498Z,99295.59
2023-08-02T20:08:35.547Z,99299.14
2023-08-02T20:13:40.984Z,99297.23
2023-08-02T20:18:46.695Z,99295.42
2023-08-02T20:23:59.591Z,99292.55
2023-08-02T20:29:02.738Z,99289.14
2023-08-02T20:34:10.163Z,99288.52
2023-08-02T20:39:16.076Z,99286.13
2023-08-02T20:44:23.841Z,99280.19
2023-08-02T20:49:26.735Z,99277.91
2023-08-02T20:54:29.559Z,99274.22
2023-08-02T20:59:32.592Z,99272.11
2023-08-02T21:04:35.435Z,99267.61
2023-08-02T21:09:38.636Z,99252.27
2023-08-02T21:14:43.387Z,99257.17
2023-08-02T21:19:47.862Z,99251.04
2023-08-02T21:24:54.460Z,99244.11
2023-08-02T21:29:59.004Z,99245.77
2023-08-02T21:35:04.200Z,99251.83
2023-08-02T21:40:17.780Z,99251.52
2023-08-02T21:45:22.929Z,99264.81
2023-08-02T21:50:27.099Z,99272.62
2023-08-02T21:55:30.078Z,99272.46
2023-08-02T22:00:35.194Z,99271.11
2023-08-02T22:05:40.167Z,99267.85
2023-08-02T22:10:44.885Z,99271.97
2023-08-02T22:15:47.766Z,99270.58
2023-08-02T22:20:51.080Z,99262.59
2023-08-02T22:25:53.991Z,99264.41
2023-08-02T22:30:56.879Z,99254.61
2023-08-02T22:36:00.443Z,99248.31
2023-08-02T22:41:04.271Z,99241.30
2023-08-02T22:46:07.328Z,99236.05
2023-08-02T22:51:10.682Z,99224.48
2023-08-02T22:56:13.806Z,99222.10
2023-08-02T23:01:17.951Z,99217.23
2023-08-02T23:06:22.842Z,99228.23
2023-08-02T23:11:25.984Z,99240.96
2023-08-02T23:16:29.012Z,99241.75
2023-08-02T23:21:36.044Z,99244.36
2023-08-02T23:26:39.226Z,99240.74
2023-08-02T23:31:42.584Z,99234.20
2023-08-02T23:36:46.001Z,99229.01
2023-08-02T23:41:48.886Z,99223.66
2023-08-02T23:46:51.734Z,99228.58
2023-08-02T23:51:54.564Z,99222.52
2023-08-02T23:56:57.561Z,99213.11
